createdAt,value
2018-01-08T00:00:32.214Z,98371.76
2018-01-08T00:02:59.725Z,98378.89
2018-01-08T00:05:27.254Z,98376.31
2018-01-08T00:07:54.779Z,98375.39
2018-01-08T00:10:22.320Z,98368.11
2018-01-08T00:12:49.858Z,98371.64
2018-01-08T00:15:17.403Z,98376.45
2018-01-08T00:17:44.985Z,98373.94
2018-01-08T00:20:12.504Z,98374.59
2018-01-08T00:22:40.040Z,98379.16
2018-01-08T00:25:07.569Z,98377.41
2018-01-08T00:27:35.100Z,98383.34
2018-01-08T00:30:02.644Z,98366.25
2018-01-08T00:32:30.209Z,98365.03
2018-01-08T00:34:57.741Z,98368.14
2018-01-08T00:37:25.259Z,98365.85
2018-01-08T00:39:52.909Z,98366.25
2018-01-08T00:42:20.464Z,98357.27
2018-01-08T00:44:48.009Z,98354.96
2018-01-08T00:47:15.555Z,98357.80
2018-01-08T00:49:43.069Z,98359.80
2018-01-08T00:52:10.601Z,98356.17
2018-01-08T00:54:38.136Z,98354.17
2018-01-08T00:57:05.659Z,98348.52
2018-01-08T00:59:33.185Z,98347.32
2018-01-08T01:02:00.749Z,98348.00
2018-01-08T01:04:28.306Z,98349.45
2018-01-08T01:06:55.835Z,98342.60
2018-01-08T01:09:23.364Z,98348.63
2018-01-08T01:11:50.927Z,98352.80
2018-01-08T01:14:18.469Z,98347.71
2018-01-08T01:16:46.000Z,98348.63
2018-01-08T01:19:13.520Z,98352.79
2018-01-08T01:21:41.080Z,98348.64
2018-01-08T01:24:08.590Z,98347.93
2018-01-08T01:26:36.136Z,98342.97
2018-01-08T01:29:03.669Z,98350.05
2018-01-08T01:31:31.179Z,98352.81
2018-01-08T01:33:58.690Z,98359.12
2018-01-08T01:36:26.216Z,98360.59
2018-01-08T01:38:53.755Z,98362.22
2018-01-08T01:41:21.268Z,98359.63
2018-01-08T01:43:48.796Z,98356.29
2018-01-08T01:46:16.335Z,98362.72
2018-01-08T01:48:43.866Z,98362.39
2018-01-08T01:51:11.380Z,98363.71
2018-01-08T01:53:38.895Z,98358.63
2018-01-08T01:56:06.406Z,98353.80
2018-01-08T01:58:33.959Z,98345.91
2018-01-08T02:01:01.472Z,98351.48
2018-01-08T02:03:29.001Z,98361.47
2018-01-08T02:05:56.512Z,98354.17
2018-01-08T02:08:24.020Z,98360.73
2018-01-08T02:10:51.550Z,98368.09
2018-01-08T02:13:19.066Z,98371.43
2018-01-08T02:15:46.599Z,98358.84
2018-01-08T02:18:14.118Z,98359.09
2018-01-08T02:20:41.659Z,98368.52
2018-01-08T02:23:09.181Z,98371.81
2018-01-08T02:25:36.715Z,98368.84
2018-01-08T02:28:04.341Z,98375.27
2018-01-08T02:30:31.861Z,98375.10
2018-01-08T02:32:59.409Z,98374.09
2018-01-08T02:35:26.934Z,98385.87
2018-01-08T02:37:54.445Z,98388.30
2018-01-08T02:40:21.965Z,98386.80
2018-01-08T02:42:49.488Z,98392.83
2018-01-08T02:45:17.011Z,98395.64
2018-01-08T02:47:44.664Z,98388.48
2018-01-08T02:50:12.199Z,98397.41
2018-01-08T02:52:39.785Z,98395.55
2018-01-08T02:55:07.300Z,98396.05
2018-01-08T02:57:34.879Z,98403.53
2018-01-08T03:00:02.376Z,98405.11
2018-01-08T03:02:29.902Z,98411.94
2018-01-08T03:04:58.241Z,98411.22
2018-01-08T03:07:25.746Z,98408.13
2018-01-08T03:09:53.275Z,98414.48
2018-01-08T03:12:20.777Z,98414.00
2018-01-08T03:14:48.329Z,98414.78
2018-01-08T03:17:15.849Z,98411.52
2018-01-08T03:19:43.396Z,98414.38
2018-01-08T03:22:10.945Z,98421.56
2018-01-08T03:24:38.501Z,98418.56
2018-01-08T03:27:06.040Z,98417.91
2018-01-08T03:29:33.614Z,98423.23
2018-01-08T03:32:01.164Z,98427.55
2018-01-08T03:34:28.697Z,98432.64
2018-01-08T03:36:56.231Z,98434.51
2018-01-08T03:39:23.770Z,98432.38
2018-01-08T03:48:37.386Z,98426.48
2018-01-08T03:51:04.920Z,98425.19
2018-01-08T03:53:32.449Z,98421.64
2018-01-08T03:55:59.969Z,98422.23
2018-01-08T03:58:27.480Z,98428.95
2018-01-08T04:00:55.001Z,98425.78
2018-01-08T04:03:22.514Z,98424.24
2018-01-08T04:05:50.051Z,98428.55
2018-01-08T04:08:17.592Z,98434.00
2018-01-08T04:10:45.095Z,98434.84
2018-01-08T04:13:12.619Z,98423.63
2018-01-08T04:15:40.166Z,98423.74
2018-01-08T04:18:07.706Z,98428.93
2018-01-08T04:20:35.210Z,98421.80
2018-01-08T04:23:02.726Z,98423.69
2018-01-08T04:25:30.231Z,98424.39
2018-01-08T04:27:57.769Z,98415.73
2018-01-08T04:30:25.302Z,98415.28
2018-01-08T04:32:52.820Z,98419.70
2018-01-08T04:35:20.341Z,98416.58
2018-01-08T04:37:47.985Z,98419.61
2018-01-08T04:40:15.517Z,98418.24
2018-01-08T04:42:43.067Z,98430.44
2018-01-08T04:45:10.597Z,98422.41
2018-01-08T04:47:38.160Z,98421.00
2018-01-08T04:50:05.700Z,98420.77
2018-01-08T04:52:33.204Z,98422.95
2018-01-08T04:55:00.726Z,98421.44
2018-01-08T04:57:28.255Z,98414.02
2018-01-08T04:59:55.781Z,98415.24
2018-01-08T05:02:23.321Z,98420.88
2018-01-08T05:04:50.849Z,98420.23
2018-01-08T05:07:18.377Z,98417.38
2018-01-08T05:09:45.920Z,98424.14
2018-01-08T05:12:13.460Z,98416.28
2018-01-08T05:14:41.001Z,98416.66
2018-01-08T05:17:08.527Z,98420.37
2018-01-08T05:19:36.080Z,98412.70
2018-01-08T05:22:03.601Z,98411.62
2018-01-08T05:24:31.158Z,98410.12
2018-01-08T05:26:58.714Z,98409.68
2018-01-08T05:29:26.246Z,98405.38
2018-01-08T05:31:53.776Z,98408.75
2018-01-08T05:34:21.294Z,98414.60
2018-01-08T05:36:48.820Z,98415.53
2018-01-08T05:39:16.384Z,98410.00
2018-01-08T05:41:43.920Z,98402.45
2018-01-08T05:44:11.451Z,98412.11
2018-01-08T05:46:39.015Z,98405.77
2018-01-08T05:49:06.547Z,98403.61
2018-01-08T05:51:34.093Z,98397.62
2018-01-08T05:54:01.626Z,98404.25
2018-01-08T05:56:29.164Z,98403.77
2018-01-08T05:58:56.715Z,98408.69
2018-01-08T06:01:24.440Z,98409.47
2018-01-08T06:03:51.952Z,98415.98
2018-01-08T06:06:19.476Z,98404.38
2018-01-08T06:08:47.140Z,98393.16
2018-01-08T06:11:14.674Z,98404.86
2018-01-08T06:13:42.212Z,98408.50
2018-01-08T06:16:09.830Z,98407.21
2018-01-08T06:18:37.374Z,98404.49
2018-01-08T06:21:04.891Z,98404.31
2018-01-08T06:23:32.425Z,98403.91
2018-01-08T06:25:59.962Z,98406.28
2018-01-08T06:28:27.514Z,98399.89
2018-01-08T06:30:55.182Z,98392.37
2018-01-08T06:33:22.700Z,98390.11
2018-01-08T06:35:50.241Z,98382.23
2018-01-08T06:38:17.786Z,98382.69
2018-01-08T06:40:45.296Z,98380.98
2018-01-08T06:43:12.833Z,98382.17
2018-01-08T06:45:40.372Z,98392.50
2018-01-08T06:48:07.918Z,98400.12
2018-01-08T06:50:35.445Z,98399.75
2018-01-08T06:53:02.980Z,98398.55
2018-01-08T06:55:30.505Z,98400.07
2018-01-08T06:57:58.236Z,98398.78
2018-01-08T07:00:25.756Z,98410.64
2018-01-08T07:02:53.280Z,98411.76
2018-01-08T07:05:20.805Z,98415.32
2018-01-08T07:07:48.347Z,98416.48
2018-01-08T07:10:15.900Z,98418.95
2018-01-08T07:12:43.412Z,98415.58
2018-01-08T07:15:10.936Z,98419.31
2018-01-08T07:17:38.501Z,98417.05
2018-01-08T07:20:06.040Z,98417.03
2018-01-08T07:22:33.576Z,98416.17
2018-01-08T07:25:01.181Z,98417.06
2018-01-08T07:27:28.702Z,98418.91
2018-01-08T07:29:56.226Z,98423.61
2018-01-08T07:32:23.751Z,98426.65
2018-01-08T07:34:51.280Z,98420.52
2018-01-08T07:37:18.796Z,98428.19
2018-01-08T07:39:46.325Z,98426.95
2018-01-08T07:42:13.856Z,98425.13
2018-01-08T07:44:41.377Z,98426.58
2018-01-08T07:47:08.892Z,98434.49
2018-01-08T07:49:36.426Z,98434.53
2018-01-08T07:52:03.963Z,98427.27
2018-01-08T07:54:31.517Z,98432.73
2018-01-08T07:56:59.050Z,98430.95
2018-01-08T07:59:26.552Z,98424.73
2018-01-08T08:01:54.085Z,98422.81
2018-01-08T08:04:21.595Z,98418.48
2018-01-08T08:06:49.182Z,98425.58
2018-01-08T08:09:16.693Z,98427.32
2018-01-08T08:11:44.236Z,98425.38
2018-01-08T08:14:11.780Z,98425.27
2018-01-08T08:16:39.621Z,98423.53
2018-01-08T08:19:07.162Z,98415.56
2018-01-08T08:21:34.688Z,98419.42
2018-01-08T08:24:02.249Z,98421.16
2018-01-08T08:26:29.775Z,98416.92
2018-01-08T08:28:57.341Z,98415.09
2018-01-08T08:31:24.857Z,98411.55
2018-01-08T08:33:52.372Z,98419.78
2018-01-08T08:36:19.895Z,98425.11
2018-01-08T08:38:47.437Z,98422.61
2018-01-08T08:41:14.972Z,98424.32
2018-01-08T08:43:42.537Z,98426.73
2018-01-08T08:46:10.060Z,98420.63
2018-01-08T08:48:37.587Z,98417.42
2018-01-08T08:51:05.122Z,98416.61
2018-01-08T08:53:32.655Z,98418.14
2018-01-08T08:56:00.198Z,98415.78
2018-01-08T08:58:27.723Z,98420.77
2018-01-08T09:00:55.250Z,98421.64
2018-01-08T09:03:22.788Z,98423.13
2018-01-08T09:05:50.343Z,98429.71
2018-01-08T09:08:17.878Z,98434.58
2018-01-08T09:10:45.431Z,98431.98
2018-01-08T09:13:13.011Z,98434.42
2018-01-08T09:15:40.538Z,98426.94
2018-01-08T09:18:08.042Z,98425.39
2018-01-08T09:20:35.676Z,98428.65
2018-01-08T09:23:03.191Z,98430.58
2018-01-08T09:25:30.752Z,98424.40
2018-01-08T09:27:58.312Z,98434.20
2018-01-08T09:30:25.840Z,98434.62
2018-01-08T09:32:53.570Z,98439.48
2018-01-08T09:35:21.212Z,98440.57
2018-01-08T09:37:48.738Z,98442.06
2018-01-08T09:40:16.331Z,98436.06
2018-01-08T09:42:43.867Z,98434.17
2018-01-08T09:45:11.412Z,98438.33
2018-01-08T09:47:38.932Z,98441.70
2018-01-08T09:50:06.553Z,98445.75
2018-01-08T09:52:34.092Z,98448.00
2018-01-08T09:55:01.630Z,98448.02
2018-01-08T09:57:29.165Z,98449.92
2018-01-08T09:59:56.811Z,98446.14
2018-01-08T10:02:23.842Z,98444.67
2018-01-08T10:05:03.167Z,98446.56
2018-01-08T10:07:42.535Z,98446.13
2018-01-08T10:10:22.073Z,98441.55
2018-01-08T10:13:01.563Z,98440.08
2018-01-08T10:15:41.029Z,98435.91
2018-01-08T10:18:20.535Z,98442.21
2018-01-08T10:20:48.086Z,98433.89
2018-01-08T10:23:15.620Z,98430.83
2018-01-08T10:25:43.148Z,98424.91
2018-01-08T10:28:10.682Z,98424.89
2018-01-08T10:30:38.246Z,98418.03
2018-01-08T10:33:05.770Z,98424.63
2018-01-08T10:35:33.298Z,98417.23
2018-01-08T10:38:00.806Z,98413.08
2018-01-08T10:40:28.330Z,98411.07
2018-01-08T10:43:01.441Z,98412.94
2018-01-08T10:45:34.693Z,98409.84
2018-01-08T10:48:07.856Z,98399.49
2018-01-08T10:50:40.927Z,98405.82
2018-01-08T10:56:09.630Z,98400.71
2018-01-08T10:58:37.154Z,98400.16
2018-01-08T11:01:10.157Z,98394.64
2018-01-08T11:03:43.271Z,98382.28
2018-01-08T11:06:10.805Z,98376.22
2018-01-08T11:08:38.351Z,98377.30
2018-01-08T11:11:05.917Z,98374.48
2018-01-08T11:13:33.484Z,98371.50
2018-01-08T11:16:01.113Z,98375.06
2018-01-08T11:18:28.646Z,98370.43
2018-01-08T11:20:56.182Z,98365.73
2018-01-08T11:23:23.718Z,98375.02
2018-01-08T11:25:51.241Z,98361.55
2018-01-08T11:28:18.807Z,98359.92
2018-01-08T11:30:46.361Z,98354.70
2018-01-08T11:33:13.883Z,98348.91
2018-01-08T11:35:41.403Z,98353.20
2018-01-08T11:38:08.946Z,98351.45
2018-01-08T11:40:36.492Z,98339.74
2018-01-08T11:43:04.016Z,98337.45
2018-01-08T11:45:31.564Z,98338.92
2018-01-08T11:47:59.126Z,98332.85
2018-01-08T11:50:26.652Z,98322.50
2018-01-08T11:52:54.225Z,98323.06
2018-01-08T11:55:21.735Z,98317.65
2018-01-08T11:57:49.248Z,98319.06
2018-01-08T12:00:16.822Z,98313.56
2018-01-08T12:02:44.374Z,98312.27
2018-01-08T12:05:11.998Z,98306.07
2018-01-08T12:07:39.601Z,98304.78
2018-01-08T12:10:07.138Z,98310.45
2018-01-08T12:12:34.732Z,98310.02
2018-01-08T12:15:02.263Z,98302.70
2018-01-08T12:17:29.803Z,98302.83
2018-01-08T12:19:57.320Z,98295.19
2018-01-08T12:22:24.843Z,98287.50
2018-01-08T12:24:52.371Z,98285.20
2018-01-08T12:27:19.913Z,98292.65
2018-01-08T12:29:47.478Z,98288.40
2018-01-08T12:32:15.031Z,98292.89
2018-01-08T12:34:42.555Z,98277.91
2018-01-08T12:37:10.088Z,98278.01
2018-01-08T12:39:37.627Z,98270.23
2018-01-08T12:42:05.181Z,98277.03
2018-01-08T12:44:32.723Z,98278.94
2018-01-08T12:47:00.261Z,98274.70
2018-01-08T12:49:27.816Z,98263.05
2018-01-08T12:51:55.353Z,98271.48
2018-01-08T12:54:22.967Z,98271.84
2018-01-08T12:56:50.635Z,98265.08
2018-01-08T12:59:18.180Z,98253.31
2018-01-08T13:01:45.721Z,98256.06
2018-01-08T13:04:13.279Z,98257.47
2018-01-08T13:06:40.825Z,98262.52
2018-01-08T13:09:08.446Z,98258.48
2018-01-08T13:11:36.085Z,98251.47
2018-01-08T13:14:03.602Z,98248.37
2018-01-08T13:16:31.166Z,98249.29
2018-01-08T13:18:58.732Z,98242.88
2018-01-08T13:21:26.271Z,98242.84
2018-01-08T13:23:53.841Z,98235.20
2018-01-08T13:26:21.387Z,98239.11
2018-01-08T13:28:48.937Z,98234.45
2018-01-08T13:31:16.501Z,98240.48
2018-01-08T13:33:44.073Z,98227.63
2018-01-08T13:36:11.613Z,98233.09
2018-01-08T13:38:39.133Z,98236.39
2018-01-08T13:41:06.706Z,98240.79
2018-01-08T13:43:34.227Z,98235.21
2018-01-08T13:46:01.767Z,98227.01
2018-01-08T13:48:29.315Z,98235.88
2018-01-08T13:50:56.936Z,98226.19
2018-01-08T13:53:24.612Z,98232.50
2018-01-08T13:55:52.171Z,98234.44
2018-01-08T13:58:19.706Z,98233.91
2018-01-08T14:00:47.284Z,98236.14
2018-01-08T14:03:14.822Z,98228.25
2018-01-08T14:05:42.383Z,98243.70
2018-01-08T14:08:09.894Z,98250.47
2018-01-08T14:10:37.451Z,98239.31
2018-01-08T14:13:04.972Z,98246.60
2018-01-08T14:15:32.522Z,98249.01
2018-01-08T14:18:00.083Z,98243.91
2018-01-08T14:20:27.628Z,98248.48
2018-01-08T14:22:55.192Z,98242.61
2018-01-08T14:25:22.761Z,98256.58
2018-01-08T14:27:50.287Z,98253.20
2018-01-08T14:30:17.832Z,98259.39
2018-01-08T14:32:45.398Z,98254.95
2018-01-08T14:35:13.102Z,98256.17
2018-01-08T14:37:40.771Z,98267.99
2018-01-08T14:40:08.430Z,98270.96
2018-01-08T14:42:35.958Z,98274.31
2018-01-08T14:45:03.488Z,98271.37
2018-01-08T14:47:31.073Z,98265.33
2018-01-08T14:49:58.607Z,98262.23
2018-01-08T14:52:26.136Z,98259.67
2018-01-08T14:54:53.657Z,98267.08
2018-01-08T14:57:21.182Z,98265.05
2018-01-08T14:59:48.727Z,98263.83
2018-01-08T15:02:16.582Z,98266.95
2018-01-08T15:04:44.116Z,98277.98
2018-01-08T15:07:11.696Z,98276.48
2018-01-08T15:09:39.251Z,98266.94
2018-01-08T15:12:06.812Z,98273.81
2018-01-08T15:14:34.373Z,98270.47
2018-01-08T15:17:01.914Z,98254.72
2018-01-08T15:19:29.456Z,98259.30
2018-01-08T15:21:57.042Z,98261.45
2018-01-08T15:24:24.586Z,98259.18
2018-01-08T15:26:52.124Z,98266.02
2018-01-08T15:29:19.657Z,98274.60
2018-01-08T15:31:47.192Z,98267.23
2018-01-08T15:34:14.724Z,98261.58
2018-01-08T15:36:42.302Z,98269.79
2018-01-08T15:39:09.847Z,98263.86
2018-01-08T15:41:37.383Z,98258.76
2018-01-08T15:44:05.026Z,98261.05
2018-01-08T15:46:32.562Z,98264.40
2018-01-08T15:49:00.099Z,98261.03
2018-01-08T15:51:27.629Z,98263.19
2018-01-08T15:53:55.182Z,98266.81
2018-01-08T15:56:22.713Z,98263.07
2018-01-08T15:58:50.429Z,98253.53
2018-01-08T16:01:18.050Z,98253.80
2018-01-08T16:03:45.572Z,98245.06
2018-01-08T16:06:13.133Z,98245.34
2018-01-08T16:08:40.683Z,98255.15
2018-01-08T16:11:08.206Z,98242.10
2018-01-08T16:13:35.761Z,98248.02
2018-01-08T16:16:03.863Z,98240.08
2018-01-08T16:18:31.393Z,98239.67
2018-01-08T16:20:58.923Z,98230.68
2018-01-08T16:23:26.467Z,98243.73
2018-01-08T16:25:54.002Z,98242.09
2018-01-08T16:28:21.559Z,98242.63
2018-01-08T16:30:49.216Z,98240.20
2018-01-08T16:33:16.787Z,98228.53
2018-01-08T16:35:44.342Z,98231.08
2018-01-08T16:38:11.903Z,98234.70
2018-01-08T16:40:39.502Z,98237.66
2018-01-08T16:43:07.032Z,98236.59
2018-01-08T16:45:34.677Z,98236.60
2018-01-08T16:48:02.387Z,98232.42
2018-01-08T16:50:29.933Z,98232.69
2018-01-08T16:52:57.482Z,98237.24
2018-01-08T16:55:25.022Z,98226.59
2018-01-08T16:57:52.548Z,98228.20
2018-01-08T17:00:20.084Z,98229.30
2018-01-08T17:02:47.637Z,98223.46
2018-01-08T17:05:15.248Z,98225.14
2018-01-08T17:07:42.772Z,98225.23
2018-01-08T17:10:10.309Z,98224.78
2018-01-08T17:12:37.852Z,98224.17
2018-01-08T17:15:05.395Z,98215.11
2018-01-08T17:17:32.928Z,98214.38
2018-01-08T17:20:00.479Z,98223.95
2018-01-08T17:22:28.060Z,98212.38
2018-01-08T17:24:55.712Z,98220.20
2018-01-08T17:27:23.263Z,98224.95
2018-01-08T17:29:50.797Z,98225.19
2018-01-08T17:32:18.448Z,98223.39
2018-01-08T17:34:45.978Z,98224.42
2018-01-08T17:37:14.093Z,98226.77
2018-01-08T17:39:41.629Z,98229.41
2018-01-08T17:42:09.319Z,98228.77
2018-01-08T17:44:36.876Z,98241.59
2018-01-08T17:47:04.449Z,98230.42
2018-01-08T17:49:32.014Z,98232.80
2018-01-08T17:51:59.543Z,98234.96
2018-01-08T17:54:27.153Z,98237.00
2018-01-08T17:56:54.678Z,98233.92
2018-01-08T17:59:22.204Z,98231.08
2018-01-08T18:01:49.747Z,98230.64
2018-01-08T18:04:17.298Z,98235.06
2018-01-08T18:06:44.823Z,98231.43
2018-01-08T18:09:12.392Z,98225.80
2018-01-08T18:11:39.923Z,98226.12
2018-01-08T18:14:07.463Z,98227.83
2018-01-08T18:16:35.026Z,98226.41
2018-01-08T18:19:02.590Z,98225.81
2018-01-08T18:21:30.149Z,98216.98
2018-01-08T18:23:57.737Z,98209.99
2018-01-08T18:26:25.311Z,98208.33
2018-01-08T18:28:52.954Z,98214.70
2018-01-08T18:31:20.504Z,98216.22
2018-01-08T18:33:48.053Z,98212.84
2018-01-08T18:36:15.624Z,98215.02
2018-01-08T18:38:43.164Z,98205.06
2018-01-08T18:41:10.728Z,98208.08
2018-01-08T18:43:38.334Z,98207.20
2018-01-08T18:46:05.899Z,98208.70
2018-01-08T18:48:33.428Z,98206.23
2018-01-08T18:51:00.973Z,98200.38
2018-01-08T18:53:28.509Z,98196.62
2018-01-08T18:55:56.056Z,98198.99
2018-01-08T18:58:23.646Z,98200.09
2018-01-08T19:00:51.188Z,98200.34
2018-01-08T19:03:18.735Z,98198.60
2018-01-08T19:05:46.259Z,98193.63
2018-01-08T19:08:13.811Z,98193.51
2018-01-08T19:10:41.558Z,98186.56
2018-01-08T19:13:09.088Z,98183.12
2018-01-08T19:15:36.681Z,98174.11
2018-01-08T19:18:04.252Z,98176.84
2018-01-08T19:20:31.786Z,98175.55
2018-01-08T19:22:59.593Z,98171.84
2018-01-08T19:25:27.163Z,98170.89
2018-01-08T19:27:54.778Z,98171.86
2018-01-08T19:30:22.433Z,98163.48
2018-01-08T19:32:50.009Z,98163.95
2018-01-08T19:35:17.554Z,98161.55
2018-01-08T19:37:45.096Z,98161.15
2018-01-08T19:40:12.645Z,98171.70
2018-01-08T19:42:40.192Z,98157.79
2018-01-08T19:45:07.732Z,98159.74
2018-01-08T19:47:35.365Z,98163.02
2018-01-08T19:50:03.040Z,98147.80
2018-01-08T19:52:30.623Z,98156.44
2018-01-08T19:54:58.278Z,98153.11
2018-01-08T19:57:25.885Z,98153.00
2018-01-08T19:59:53.452Z,98150.52
2018-01-08T20:02:21.003Z,98148.58
2018-01-08T20:04:48.579Z,98145.28
2018-01-08T20:07:16.174Z,98144.69
2018-01-08T20:09:43.799Z,98138.31
2018-01-08T20:12:12.019Z,98139.75
2018-01-08T20:14:39.552Z,98139.23
2018-01-08T20:17:07.207Z,98140.86
2018-01-08T20:19:36.578Z,98135.81
2018-01-08T20:22:04.412Z,98138.83
2018-01-08T20:24:32.033Z,98133.39
2018-01-08T20:26:59.573Z,98132.69
2018-01-08T20:29:27.284Z,98125.73
2018-01-08T20:31:54.904Z,98127.39
2018-01-08T20:34:22.541Z,98123.83
2018-01-08T20:36:50.116Z,98127.11
2018-01-08T20:39:17.669Z,98126.58
2018-01-08T20:41:45.205Z,98122.25
2018-01-08T20:44:12.797Z,98126.35
2018-01-08T20:46:40.348Z,98124.86
2018-01-08T20:49:07.913Z,98124.02
2018-01-08T20:51:35.469Z,98112.03
2018-01-08T20:54:03.079Z,98107.72
2018-01-08T20:56:30.664Z,98112.26
2018-01-08T20:58:58.233Z,98099.06
2018-01-08T21:01:26.074Z,98100.31
2018-01-08T21:03:53.633Z,98096.11
2018-01-08T21:06:21.293Z,98089.81
2018-01-08T21:08:49.123Z,98087.41
2018-01-08T21:11:16.728Z,98090.80
2018-01-08T21:13:44.288Z,98091.56
2018-01-08T21:16:11.848Z,98082.44
2018-01-08T21:18:39.409Z,98079.09
2018-01-08T21:21:06.989Z,98080.84
2018-01-08T21:23:34.568Z,98084.71
2018-01-08T21:26:02.110Z,98091.47
2018-01-08T21:28:29.664Z,98085.06
2018-01-08T21:30:57.240Z,98070.14
2018-01-08T21:33:24.803Z,98068.40
2018-01-08T21:35:52.372Z,98062.06
2018-01-08T21:38:20.023Z,98062.34
2018-01-08T21:40:47.558Z,98055.76
2018-01-08T21:43:15.090Z,98052.71
2018-01-08T21:45:42.655Z,98053.99
2018-01-08T21:48:10.184Z,98056.65
2018-01-08T21:50:37.737Z,98052.83
2018-01-08T21:53:05.274Z,98057.94
2018-01-08T21:55:32.979Z,98046.88
2018-01-08T21:58:00.504Z,98041.67
2018-01-08T22:00:28.063Z,98030.59
2018-01-08T22:02:55.598Z,98022.84
2018-01-08T22:05:23.173Z,98019.52
2018-01-08T22:07:50.754Z,98007.88
2018-01-08T22:10:18.303Z,98002.23
2018-01-08T22:12:45.833Z,98001.34
2018-01-08T22:15:13.372Z,98008.98
2018-01-08T22:17:40.914Z,98010.41
2018-01-08T22:20:08.482Z,98008.03
2018-01-08T22:22:36.053Z,98003.87
2018-01-08T22:25:03.603Z,98000.30
2018-01-08T22:27:31.166Z,98004.41
2018-01-08T22:29:58.796Z,97999.89
2018-01-08T22:32:26.336Z,97993.47
2018-01-08T22:34:54.884Z,97999.25
2018-01-08T22:37:22.468Z,97983.94
2018-01-08T22:39:49.998Z,97990.59
2018-01-08T22:42:17.675Z,97992.77
2018-01-08T22:44:45.232Z,98003.78
2018-01-08T22:47:12.784Z,97989.39
2018-01-08T22:49:40.438Z,97989.91
2018-01-08T22:52:08.074Z,97990.16
2018-01-08T22:54:35.603Z,97990.33
2018-01-08T22:57:03.199Z,97982.49
2018-01-08T22:59:30.819Z,97977.66
2018-01-08T23:08:44.393Z,97969.80
2018-01-08T23:11:11.928Z,97963.28
2018-01-08T23:13:39.660Z,97954.44
2018-01-08T23:16:07.212Z,97946.17
2018-01-08T23:18:34.759Z,97925.20
2018-01-08T23:21:02.344Z,97935.97
2018-01-08T23:23:29.923Z,97934.65
2018-01-08T23:25:57.537Z,97933.46
2018-01-08T23:28:25.238Z,97931.97
2018-01-08T23:30:52.800Z,97920.92
2018-01-08T23:33:20.388Z,97926.41
2018-01-08T23:35:47.923Z,97913.95
2018-01-08T23:38:15.464Z,97908.97
2018-01-08T23:40:43.024Z,97902.87
2018-01-08T23:43:10.563Z,97901.03
2018-01-08T23:45:38.163Z,97893.48
2018-01-08T23:48:05.718Z,97879.33
2018-01-08T23:50:33.289Z,97881.55
2018-01-08T23:53:00.885Z,97880.17
2018-01-08T23:55:28.456Z,97885.23
2018-01-08T23:57:56.008Z,97871.27
